sensor_id;sensor_type;location;lat;lon;timestamp;pressure;altitude;pressure_sealevel;temperature;humidity
48926;BME280;39838;59.938;30.642;2023-09-19T00:00:26;100953.03;;;7.78;88.18
48926;BME280;39838;59.938;30.642;2023-09-19T00:02:54;100949.59;;;7.79;88.52
48926;BME280;39838;59.938;30.642;2023-09-19T00:05:26;100952.19;;;7.79;88.79
48926;BME280;39838;59.938;30.642;2023-09-19T00:07:55;100953.84;;;7.75;88.65
48926;BME280;39838;59.938;30.642;2023-09-19T00:10:25;100950.25;;;7.67;88.78
48926;BME280;39838;59.938;30.642;2023-09-19T00:12:53;100938.09;;;7.63;88.71
48926;BME280;39838;59.938;30.642;2023-09-19T00:15:23;100947.72;;;7.70;89.10
48926;BME280;39838;59.938;30.642;2023-09-19T00:17:51;100950.31;;;7.72;88.90
48926;BME280;39838;59.938;30.642;2023-09-19T00:20:19;100949.50;;;7.73;88.62
48926;BME280;39838;59.938;30.642;2023-09-19T00:22:49;100940.91;;;7.74;88.90
48926;BME280;39838;59.938;30.642;2023-09-19T00:25:18;100935.78;;;7.77;88.92
48926;BME280;39838;59.938;30.642;2023-09-19T00:27:45;100936.63;;;7.77;88.42
48926;BME280;39838;59.938;30.642;2023-09-19T00:30:17;100933.19;;;7.77;88.38
48926;BME280;39838;59.938;30.642;2023-09-19T00:32:50;100928.84;;;7.76;87.99
48926;BME280;39838;59.938;30.642;2023-09-19T00:35:20;100911.34;;;7.61;88.16
48926;BME280;39838;59.938;30.642;2023-09-19T00:37:49;100930.47;;;7.71;88.30
48926;BME280;39838;59.938;30.642;2023-09-19T00:40:16;100927.00;;;7.69;88.53
48926;BME280;39838;59.938;30.642;2023-09-19T00:42:46;100922.66;;;7.66;88.05
48926;BME280;39838;59.938;30.642;2023-09-19T00:45:15;100924.38;;;7.65;88.31
48926;BME280;39838;59.938;30.642;2023-09-19T00:47:45;100919.19;;;7.65;88.44
48926;BME280;39838;59.938;30.642;2023-09-19T00:50:17;100939.03;;;7.66;88.74
48926;BME280;39838;59.938;30.642;2023-09-19T00:52:46;100926.13;;;7.66;88.19
48926;BME280;39838;59.938;30.642;2023-09-19T00:55:16;100926.06;;;7.65;88.06
48926;BME280;39838;59.938;30.642;2023-09-19T00:57:45;100912.16;;;7.58;87.69
48926;BME280;39838;59.938;30.642;2023-09-19T01:00:15;100918.25;;;7.60;88.20
48926;BME280;39838;59.938;30.642;2023-09-19T01:02:46;100911.31;;;7.59;87.86
48926;BME280;39838;59.938;30.642;2023-09-19T01:05:16;100906.06;;;7.56;88.00
48926;BME280;39838;59.938;30.642;2023-09-19T01:07:44;100909.50;;;7.55;87.93
48926;BME280;39838;59.938;30.642;2023-09-19T01:10:15;100916.31;;;7.52;87.98
48926;BME280;39838;59.938;30.642;2023-09-19T01:12:52;100868.22;;;7.15;88.43
48926;BME280;39838;59.938;30.642;2023-09-19T01:15:28;100905.63;;;7.32;88.62
48926;BME280;39838;59.938;30.642;2023-09-19T01:18:03;100890.91;;;7.28;88.63
48926;BME280;39838;59.938;30.642;2023-09-19T01:20:39;100893.47;;;7.28;88.88
48926;BME280;39838;59.938;30.642;2023-09-19T01:23:17;100885.69;;;7.25;88.69
48926;BME280;39838;59.938;30.642;2023-09-19T01:26:16;100873.53;;;7.21;88.61
48926;BME280;39838;59.938;30.642;2023-09-19T01:28:56;100864.94;;;7.22;88.73
48926;BME280;39838;59.938;30.642;2023-09-19T01:31:32;100855.47;;;7.24;88.75
48926;BME280;39838;59.938;30.642;2023-09-19T01:34:02;100844.28;;;7.23;88.47
48926;BME280;39838;59.938;30.642;2023-09-19T01:36:33;100845.16;;;7.24;88.63
48926;BME280;39838;59.938;30.642;2023-09-19T01:39:04;100832.16;;;7.19;88.43
48926;BME280;39838;59.938;30.642;2023-09-19T01:41:47;100823.53;;;7.19;88.80
48926;BME280;39838;59.938;30.642;2023-09-19T01:44:24;100817.59;;;7.24;88.55
48926;BME280;39838;59.938;30.642;2023-09-19T01:46:54;100808.03;;;7.19;88.85
48926;BME280;39838;59.938;30.642;2023-09-19T01:49:33;100820.13;;;7.21;88.84
48926;BME280;39838;59.938;30.642;2023-09-19T01:52:09;100809.69;;;7.17;88.73
48926;BME280;39838;59.938;30.642;2023-09-19T01:54:48;100818.28;;;7.14;88.76
48926;BME280;39838;59.938;30.642;2023-09-19T01:57:26;100816.56;;;7.15;88.83
48926;BME280;39838;59.938;30.642;2023-09-19T02:00:00;100805.34;;;7.14;88.73
48926;BME280;39838;59.938;30.642;2023-09-19T02:02:34;100797.63;;;7.16;88.93
48926;BME280;39838;59.938;30.642;2023-09-19T02:05:03;100793.34;;;7.18;89.18
48926;BME280;39838;59.938;30.642;2023-09-19T02:07:32;100796.00;;;7.21;88.83
48926;BME280;39838;59.938;30.642;2023-09-19T02:10:00;100790.84;;;7.22;88.99
48926;BME280;39838;59.938;30.642;2023-09-19T02:12:30;100777.94;;;7.22;89.09
48926;BME280;39838;59.938;30.642;2023-09-19T02:14:59;100776.22;;;7.23;89.15
48926;BME280;39838;59.938;30.642;2023-09-19T02:17:26;100784.78;;;7.20;89.25
48926;BME280;39838;59.938;30.642;2023-09-19T02:19:55;100776.94;;;7.16;89.69
48926;BME280;39838;59.938;30.642;2023-09-19T02:22:24;100765.66;;;7.10;89.52
48926;BME280;39838;59.938;30.642;2023-09-19T02:24:52;100763.88;;;7.06;89.49
48926;BME280;39838;59.938;30.642;2023-09-19T02:27:19;100765.59;;;7.06;89.24
48926;BME280;39838;59.938;30.642;2023-09-19T02:29:47;100768.13;;;7.04;88.83
48926;BME280;39838;59.938;30.642;2023-09-19T02:32:15;100760.38;;;7.04;89.06
48926;BME280;39838;59.938;30.642;2023-09-19T02:34:44;100760.38;;;7.04;89.07
48926;BME280;39838;59.938;30.642;2023-09-19T02:37:13;100748.28;;;7.02;88.99
48926;BME280;39838;59.938;30.642;2023-09-19T02:39:41;100745.78;;;7.05;89.01
48926;BME280;39838;59.938;30.642;2023-09-19T02:42:09;100739.75;;;7.06;89.02
48926;BME280;39838;59.938;30.642;2023-09-19T02:44:36;100735.47;;;7.08;89.02
48926;BME280;39838;59.938;30.642;2023-09-19T02:47:04;100733.78;;;7.10;88.81
48926;BME280;39838;59.938;30.642;2023-09-19T02:49:31;100720.06;;;7.13;88.67
48926;BME280;39838;59.938;30.642;2023-09-19T02:51:59;100716.63;;;7.12;88.89
48926;BME280;39838;59.938;30.642;2023-09-19T02:54:27;100708.88;;;7.14;88.81
48926;BME280;39838;59.938;30.642;2023-09-19T02:56:55;100700.28;;;7.15;88.55
48926;BME280;39838;59.938;30.642;2023-09-19T02:59:22;100689.09;;;7.16;88.88
48926;BME280;39838;59.938;30.642;2023-09-19T03:01:50;100687.34;;;7.15;88.79
48926;BME280;39838;59.938;30.642;2023-09-19T03:04:20;100690.81;;;7.17;88.81
48926;BME280;39838;59.938;30.642;2023-09-19T03:06:47;100671.00;;;7.16;88.82
48926;BME280;39838;59.938;30.642;2023-09-19T03:09:16;100669.34;;;7.19;88.95
48926;BME280;39838;59.938;30.642;2023-09-19T03:11:46;100671.09;;;7.22;88.88
48926;BME280;39838;59.938;30.642;2023-09-19T03:14:13;100668.50;;;7.20;88.82
48926;BME280;39838;59.938;30.642;2023-09-19T03:16:41;100669.41;;;7.24;88.46
48926;BME280;39838;59.938;30.642;2023-09-19T03:19:10;100657.34;;;7.24;88.58
48926;BME280;39838;59.938;30.642;2023-09-19T03:21:37;100658.28;;;7.26;88.82
48926;BME280;39838;59.938;30.642;2023-09-19T03:24:05;100665.19;;;7.29;89.07
48926;BME280;39838;59.938;30.642;2023-09-19T03:26:33;100659.19;;;7.31;89.27
48926;BME280;39838;59.938;30.642;2023-09-19T03:29:04;100649.00;;;7.41;89.29
48926;BME280;39838;59.938;30.642;2023-09-19T03:31:33;100645.59;;;7.45;89.31
48926;BME280;39838;59.938;30.642;2023-09-19T03:34:02;100645.69;;;7.48;88.93
48926;BME280;39838;59.938;30.642;2023-09-19T03:36:30;100645.78;;;7.54;89.30
48926;BME280;39838;59.938;30.642;2023-09-19T03:38:58;100647.59;;;7.62;89.31
48926;BME280;39838;59.938;30.642;2023-09-19T03:41:25;100640.88;;;7.74;88.73
48926;BME280;39838;59.938;30.642;2023-09-19T03:43:52;100642.72;;;7.82;88.61
48926;BME280;39838;59.938;30.642;2023-09-19T03:46:21;100624.69;;;7.90;88.10
48926;BME280;39838;59.938;30.642;2023-09-19T03:48:49;100615.28;;;7.95;87.88
48926;BME280;39838;59.938;30.642;2023-09-19T03:51:16;100617.09;;;8.01;88.25
48926;BME280;39838;59.938;30.642;2023-09-19T03:53:43;100613.72;;;8.06;87.96
48926;BME280;39838;59.938;30.642;2023-09-19T03:56:09;100594.81;;;8.15;88.16
48926;BME280;39838;59.938;30.642;2023-09-19T03:58:37;100588.88;;;8.22;87.61
48926;BME280;39838;59.938;30.642;2023-09-19T04:01:05;100584.63;;;8.29;87.56
48926;BME280;39838;59.938;30.642;2023-09-19T04:03:35;100578.59;;;8.31;87.18
48926;BME280;39838;59.938;30.642;2023-09-19T04:06:12;100584.69;;;8.35;87.02
48926;BME280;39838;59.938;30.642;2023-09-19T04:08:39;100578.69;;;8.37;86.23
48926;BME280;39838;59.938;30.642;2023-09-19T04:11:07;100570.13;;;8.43;86.43
48926;BME280;39838;59.938;30.642;2023-09-19T04:13:34;100554.66;;;8.47;85.97
48926;BME280;39838;59.938;30.642;2023-09-19T04:16:02;100554.66;;;8.52;86.29
48926;BME280;39838;59.938;30.642;2023-09-19T04:18:30;100550.34;;;8.53;85.29
48926;BME280;39838;59.938;30.642;2023-09-19T04:21:00;100535.72;;;8.55;85.67
48926;BME280;39838;59.938;30.642;2023-09-19T04:23:30;100532.31;;;8.62;84.92
48926;BME280;39838;59.938;30.642;2023-09-19T04:25:57;100526.28;;;8.61;85.09
48926;BME280;39838;59.938;30.642;2023-09-19T04:28:25;100524.56;;;8.60;85.42
48926;BME280;39838;59.938;30.642;2023-09-19T04:30:53;100519.31;;;8.54;84.98
48926;BME280;39838;59.938;30.642;2023-09-19T04:33:21;100518.44;;;8.54;85.12
48926;BME280;39838;59.938;30.642;2023-09-19T04:35:49;100507.25;;;8.59;85.40
48926;BME280;39838;59.938;30.642;2023-09-19T04:38:18;100498.66;;;8.66;85.12
48926;BME280;39838;59.938;30.642;2023-09-19T04:40:47;100498.72;;;8.72;84.92
48926;BME280;39838;59.938;30.642;2023-09-19T04:43:14;100497.03;;;8.78;84.59
48926;BME280;39838;59.938;30.642;2023-09-19T04:45:42;100491.00;;;8.75;84.35
48926;BME280;39838;59.938;30.642;2023-09-19T04:48:10;100484.91;;;8.73;84.41
48926;BME280;39838;59.938;30.642;2023-09-19T04:50:37;100483.22;;;8.79;84.85
48926;BME280;39838;59.938;30.642;2023-09-19T04:53:05;100479.81;;;8.83;84.43
48926;BME280;39838;59.938;30.642;2023-09-19T04:55:34;100462.53;;;8.86;84.31
48926;BME280;39838;59.938;30.642;2023-09-19T04:58:02;100469.53;;;8.95;83.84
48926;BME280;39838;59.938;30.642;2023-09-19T05:00:29;100466.91;;;8.93;84.05
48926;BME280;39838;59.938;30.642;2023-09-19T05:03:00;100470.41;;;8.95;83.73
48926;BME280;39838;59.938;30.642;2023-09-19T05:05:30;100462.63;;;8.98;84.07
48926;BME280;39838;59.938;30.642;2023-09-19T05:07:57;100466.09;;;9.00;83.70
48926;BME280;39838;59.938;30.642;2023-09-19T05:10:25;100460.94;;;9.02;83.38
48926;BME280;39838;59.938;30.642;2023-09-19T05:12:55;100460.06;;;9.05;83.69
48926;BME280;39838;59.938;30.642;2023-09-19T05:15:22;100453.19;;;9.13;83.37
48926;BME280;39838;59.938;30.642;2023-09-19T05:17:50;100445.47;;;9.20;83.70
48926;BME280;39838;59.938;30.642;2023-09-19T05:20:20;100436.84;;;9.24;83.38
48926;BME280;39838;59.938;30.642;2023-09-19T05:22:58;100428.22;;;9.32;82.86
48926;BME280;39838;59.938;30.642;2023-09-19T05:25:28;100419.63;;;9.39;82.40
48926;BME280;39838;59.938;30.642;2023-09-19T05:27:58;100416.16;;;9.41;82.62
48926;BME280;39838;59.938;30.642;2023-09-19T05:30:29;100416.19;;;9.43;82.32
48926;BME280;39838;59.938;30.642;2023-09-19T05:32:56;100413.59;;;9.43;82.37
48926;BME280;39838;59.938;30.642;2023-09-19T05:35:24;100411.00;;;9.44;82.28
48926;BME280;39838;59.938;30.642;2023-09-19T05:37:52;100404.09;;;9.52;82.75
48926;BME280;39838;59.938;30.642;2023-09-19T05:40:21;100397.19;;;9.59;82.91
48926;BME280;39838;59.938;30.642;2023-09-19T05:42:49;100411.91;;;9.75;82.40
48926;BME280;39838;59.938;30.642;2023-09-19T05:45:18;100403.31;;;9.76;82.09
48926;BME280;39838;59.938;30.642;2023-09-19T05:47:48;100407.59;;;9.68;81.98
48926;BME280;39838;59.938;30.642;2023-09-19T05:50:17;100394.59;;;9.54;82.67
48926;BME280;39838;59.938;30.642;2023-09-19T05:52:51;100386.78;;;9.47;82.70
48926;BME280;39838;59.938;30.642;2023-09-19T05:55:19;100374.69;;;9.44;83.37
48926;BME280;39838;59.938;30.642;2023-09-19T05:57:49;100372.09;;;9.43;83.91
48926;BME280;39838;59.938;30.642;2023-09-19T06:00:19;100364.31;;;9.46;83.54
48926;BME280;39838;59.938;30.642;2023-09-19T06:02:50;100355.69;;;9.57;83.81
48926;BME280;39838;59.938;30.642;2023-09-19T06:05:18;100359.19;;;9.70;84.01
48926;BME280;39838;59.938;30.642;2023-09-19T06:07:46;100370.41;;;9.81;83.27
48926;BME280;39838;59.938;30.642;2023-09-19T06:10:13;100366.97;;;9.81;83.71
48926;BME280;39838;59.938;30.642;2023-09-19T06:12:42;100366.13;;;9.83;83.42
48926;BME280;39838;59.938;30.642;2023-09-19T06:15:10;100360.94;;;9.83;83.52
48926;BME280;39838;59.938;30.642;2023-09-19T06:17:44;100334.97;;;9.74;83.70
48926;BME280;39838;59.938;30.642;2023-09-19T06:20:13;100341.88;;;9.88;83.37
48926;BME280;39838;59.938;30.642;2023-09-19T06:22:45;100332.38;;;9.88;83.70
48926;BME280;39838;59.938;30.642;2023-09-19T06:25:16;100333.25;;;9.90;83.88
48926;BME280;39838;59.938;30.642;2023-09-19T06:27:46;100326.31;;;9.94;83.38
48926;BME280;39838;59.938;30.642;2023-09-19T06:30:14;100336.69;;;9.95;83.68
48926;BME280;39838;59.938;30.642;2023-09-19T06:32:43;100322.88;;;9.98;83.95
48926;BME280;39838;59.938;30.642;2023-09-19T06:35:13;100315.06;;;10.01;84.38
48926;BME280;39838;59.938;30.642;2023-09-19T06:37:41;100318.53;;;10.12;83.63
48926;BME280;39838;59.938;30.642;2023-09-19T06:40:11;100322.84;;;10.18;84.26
48926;BME280;39838;59.938;30.642;2023-09-19T06:42:41;100322.00;;;10.26;83.80
48926;BME280;39838;59.938;30.642;2023-09-19T06:45:10;100318.53;;;10.32;84.09
48926;BME280;39838;59.938;30.642;2023-09-19T06:47:39;100309.88;;;10.37;84.13
48926;BME280;39838;59.938;30.642;2023-09-19T06:50:08;100305.50;;;10.46;84.15
48926;BME280;39838;59.938;30.642;2023-09-19T06:52:39;100314.16;;;10.52;84.33
48926;BME280;39838;59.938;30.642;2023-09-19T06:55:07;100301.16;;;10.58;84.42
48926;BME280;39838;59.938;30.642;2023-09-19T06:57:35;100299.38;;;10.73;83.98
48926;BME280;39838;59.938;30.642;2023-09-19T07:00:03;100295.00;;;10.85;83.66
48926;BME280;39838;59.938;30.642;2023-09-19T07:02:35;100300.13;;;10.94;83.73
48926;BME280;39838;59.938;30.642;2023-09-19T07:05:02;100289.72;;;10.99;83.59
48926;BME280;39838;59.938;30.642;2023-09-19T07:07:32;100290.56;;;11.04;83.67
48926;BME280;39838;59.938;30.642;2023-09-19T07:10:00;100285.28;;;11.18;83.56
48926;BME280;39838;59.938;30.642;2023-09-19T07:12:29;100282.63;;;11.27;83.24
48926;BME280;39838;59.938;30.642;2023-09-19T07:14:57;100284.28;;;11.37;83.23
48926;BME280;39838;59.938;30.642;2023-09-19T07:17:24;100269.50;;;11.47;83.23
48926;BME280;39838;59.938;30.642;2023-09-19T07:19:53;100267.63;;;11.66;83.17
48926;BME280;39838;59.938;30.642;2023-09-19T07:22:20;100265.75;;;11.86;83.06
48926;BME280;39838;59.938;30.642;2023-09-19T07:24:51;100263.88;;;11.99;82.63
48926;BME280;39838;59.938;30.642;2023-09-19T07:27:18;100255.13;;;12.08;82.42
48926;BME280;39838;59.938;30.642;2023-09-19T07:29:46;100257.63;;;12.17;82.30
48926;BME280;39838;59.938;30.642;2023-09-19T07:32:14;100249.66;;;12.29;82.58
48926;BME280;39838;59.938;30.642;2023-09-19T07:34:42;100245.16;;;12.46;82.07
48926;BME280;39838;59.938;30.642;2023-09-19T07:37:10;100244.00;;;12.66;82.01
48926;BME280;39838;59.938;30.642;2023-09-19T07:39:39;100248.16;;;12.83;81.43
48926;BME280;39838;59.938;30.642;2023-09-19T07:42:08;100247.97;;;12.97;81.08
48926;BME280;39838;59.938;30.642;2023-09-19T07:44:37;100243.44;;;13.10;81.32
48926;BME280;39838;59.938;30.642;2023-09-19T07:47:04;100247.63;;;13.23;81.07
48926;BME280;39838;59.938;30.642;2023-09-19T07:49:34;100227.47;;;13.33;80.96
48926;BME280;39838;59.938;30.642;2023-09-19T07:52:03;100232.47;;;13.48;81.18
48926;BME280;39838;59.938;30.642;2023-09-19T07:54:30;100234.00;;;13.58;81.03
48926;BME280;39838;59.938;30.642;2023-09-19T07:57:01;100231.19;;;13.71;80.92
48926;BME280;39838;59.938;30.642;2023-09-19T07:59:30;100218.84;;;13.82;80.27
48926;BME280;39838;59.938;30.642;2023-09-19T08:01:57;100209.13;;;13.88;80.74
48926;BME280;39838;59.938;30.642;2023-09-19T08:04:25;100202.84;;;13.99;80.26
48926;BME280;39838;59.938;30.642;2023-09-19T08:06:52;100200.78;;;14.14;80.23
48926;BME280;39838;59.938;30.642;2023-09-19T08:09:21;100185.00;;;14.20;80.34
48926;BME280;39838;59.938;30.642;2023-09-19T08:11:52;100197.59;;;14.45;79.88
48926;BME280;39838;59.938;30.642;2023-09-19T08:14:19;100192.19;;;14.54;79.11
48926;BME280;39838;59.938;30.642;2023-09-19T08:16:50;100187.66;;;14.62;79.05
48926;BME280;39838;59.938;30.642;2023-09-19T08:19:17;100180.53;;;14.69;78.86
48926;BME280;39838;59.938;30.642;2023-09-19T08:21:47;100174.28;;;14.76;78.74
48926;BME280;39838;59.938;30.642;2023-09-19T08:24:14;100171.44;;;14.87;78.49
48926;BME280;39838;59.938;30.642;2023-09-19T08:26:45;100167.00;;;14.90;78.49
48926;BME280;39838;59.938;30.642;2023-09-19T08:29:12;100162.47;;;14.97;78.66
48926;BME280;39838;59.938;30.642;2023-09-19T08:31:40;100165.78;;;15.05;77.89
48926;BME280;39838;59.938;30.642;2023-09-19T08:34:09;100155.88;;;15.18;77.72
48926;BME280;39838;59.938;30.642;2023-09-19T08:36:36;100159.88;;;15.33;77.35
48926;BME280;39838;59.938;30.642;2023-09-19T08:39:04;100156.97;;;15.43;77.24
48926;BME280;39838;59.938;30.642;2023-09-19T08:41:31;100147.03;;;15.56;76.71
48926;BME280;39838;59.938;30.642;2023-09-19T08:43:59;100144.38;;;15.59;76.37
48926;BME280;39838;59.938;30.642;2023-09-19T08:46:30;100112.09;;;15.57;76.44
48926;BME280;39838;59.938;30.642;2023-09-19T08:49:04;100135.06;;;15.81;76.10
48926;BME280;39838;59.938;30.642;2023-09-19T08:51:41;100136.66;;;15.87;75.84
48926;BME280;39838;59.938;30.642;2023-09-19T08:54:19;100131.09;;;15.99;75.75
48926;BME280;39838;59.938;30.642;2023-09-19T08:56:50;100113.63;;;15.98;75.88
48926;BME280;39838;59.938;30.642;2023-09-19T08:59:21;100120.09;;;16.16;75.54
48926;BME280;39838;59.938;30.642;2023-09-19T09:01:51;100113.53;;;16.32;75.44
48926;BME280;39838;59.938;30.642;2023-09-19T09:04:20;100112.53;;;16.36;75.01
48926;BME280;39838;59.938;30.642;2023-09-19T09:06:50;100101.28;;;16.33;74.82
48926;BME280;39838;59.938;30.642;2023-09-19T09:09:20;100105.50;;;16.37;74.85
48926;BME280;39838;59.938;30.642;2023-09-19T09:11:48;100101.06;;;16.39;74.99
48926;BME280;39838;59.938;30.642;2023-09-19T09:14:19;100100.03;;;16.45;75.19
48926;BME280;39838;59.938;30.642;2023-09-19T09:16:47;100093.00;;;16.47;75.23
48926;BME280;39838;59.938;30.642;2023-09-19T09:19:18;100078.88;;;16.51;75.22
48926;BME280;39838;59.938;30.642;2023-09-19T09:21:51;100076.06;;;16.57;75.36
48926;BME280;39838;59.938;30.642;2023-09-19T09:24:28;100073.19;;;16.64;75.18
48926;BME280;39838;59.938;30.642;2023-09-19T09:26:56;100065.97;;;16.73;75.08
48926;BME280;39838;59.938;30.642;2023-09-19T09:29:40;100064.22;;;16.73;75.44
48926;BME280;39838;59.938;30.642;2023-09-19T09:32:22;100053.50;;;16.79;75.43
48926;BME280;39838;59.938;30.642;2023-09-19T09:34:52;100035.78;;;16.87;75.30
48926;BME280;39838;59.938;30.642;2023-09-19T09:37:22;100038.19;;;16.94;75.41
48926;BME280;39838;59.938;30.642;2023-09-19T09:39:54;100034.53;;;16.98;75.50
48926;BME280;39838;59.938;30.642;2023-09-19T09:42:32;100030.91;;;17.02;75.58
48926;BME280;39838;59.938;30.642;2023-09-19T09:45:22;100029.75;;;17.10;75.67
48926;BME280;39838;59.938;30.642;2023-09-19T09:48:04;100025.78;;;17.24;75.35
48926;BME280;39838;59.938;30.642;2023-09-19T09:50:46;100027.41;;;17.28;75.35
48926;BME280;39838;59.938;30.642;2023-09-19T09:53:27;100015.88;;;17.32;75.19
48926;BME280;39838;59.938;30.642;2023-09-19T09:56:00;100002.22;;;17.22;75.03
48926;BME280;39838;59.938;30.642;2023-09-19T09:58:28;100020.84;;;17.39;75.13
48926;BME280;39838;59.938;30.642;2023-09-19T10:00:59;100018.78;;;17.47;75.12
48926;BME280;39838;59.938;30.642;2023-09-19T10:03:35;100010.59;;;17.57;75.07
48926;BME280;39838;59.938;30.642;2023-09-19T10:06:10;99983.56;;;17.53;74.47
48926;BME280;39838;59.938;30.642;2023-09-19T10:09:03;100006.53;;;17.73;74.24
48926;BME280;39838;59.938;30.642;2023-09-19T10:11:41;100009.69;;;17.83;73.92
48926;BME280;39838;59.938;30.642;2023-09-19T10:14:11;99992.81;;;17.88;74.09
48926;BME280;39838;59.938;30.642;2023-09-19T10:16:45;99992.53;;;17.96;73.78
48926;BME280;39838;59.938;30.642;2023-09-19T10:19:23;99991.41;;;18.01;73.79
48926;BME280;39838;59.938;30.642;2023-09-19T10:22:01;99991.88;;;18.13;73.91
48926;BME280;39838;59.938;30.642;2023-09-19T10:24:33;99985.38;;;18.21;73.50
48926;BME280;39838;59.938;30.642;2023-09-19T10:27:03;99976.72;;;18.19;73.48
48926;BME280;39838;59.938;30.642;2023-09-19T10:29:33;99985.75;;;18.34;73.70
48926;BME280;39838;59.938;30.642;2023-09-19T10:32:03;99977.53;;;18.42;73.47
48926;BME280;39838;59.938;30.642;2023-09-19T10:34:35;99965.22;;;18.44;73.60
48926;BME280;39838;59.938;30.642;2023-09-19T10:37:04;99968.19;;;18.57;73.70
48926;BME280;39838;59.938;30.642;2023-09-19T10:39:37;99966.19;;;18.63;73.58
48926;BME280;39838;59.938;30.642;2023-09-19T10:42:11;99946.16;;;18.59;73.29
48926;BME280;39838;59.938;30.642;2023-09-19T10:44:45;99951.72;;;18.73;73.23
48926;BME280;39838;59.938;30.642;2023-09-19T10:47:13;99951.34;;;18.82;73.63
48926;BME280;39838;59.938;30.642;2023-09-19T10:49:43;99944.03;;;18.89;73.71
48926;BME280;39838;59.938;30.642;2023-09-19T10:52:14;99938.66;;;18.92;73.23
48926;BME280;39838;59.938;30.642;2023-09-19T10:54:49;99934.09;;;18.96;73.55
48926;BME280;39838;59.938;30.642;2023-09-19T10:57:20;99935.50;;;19.04;73.53
48926;BME280;39838;59.938;30.642;2023-09-19T11:00:03;99923.75;;;19.12;73.40
48926;BME280;39838;59.938;30.642;2023-09-19T11:03:16;99914.53;;;19.22;73.40
48926;BME280;39838;59.938;30.642;2023-09-19T11:06:01;99915.88;;;19.30;73.16
48926;BME280;39838;59.938;30.642;2023-09-19T11:08:31;99906.22;;;19.31;73.35
48926;BME280;39838;59.938;30.642;2023-09-19T11:11:43;99909.13;;;19.25;73.18
48926;BME280;39838;59.938;30.642;2023-09-19T11:14:40;99895.72;;;19.29;73.13
48926;BME280;39838;59.938;30.642;2023-09-19T11:17:31;99904.22;;;19.36;73.24
48926;BME280;39838;59.938;30.642;2023-09-19T11:20:18;99906.28;;;19.48;73.02
48926;BME280;39838;59.938;30.642;2023-09-19T11:23:19;99905.56;;;19.65;73.05
48926;BME280;39838;59.938;30.642;2023-09-19T11:25:53;99891.56;;;19.82;72.56
48926;BME280;39838;59.938;30.642;2023-09-19T11:28:33;99888.34;;;19.94;71.74
48926;BME280;39838;59.938;30.642;2023-09-19T11:34:46;99892.44;;;20.36;70.68
48926;BME280;39838;59.938;30.642;2023-09-19T11:40:07;99874.91;;;20.35;70.40
48926;BME280;39838;59.938;30.642;2023-09-19T11:42:42;99876.72;;;20.34;70.14
48926;BME280;39838;59.938;30.642;2023-09-19T11:48:24;99885.09;;;20.42;70.24
48926;BME280;39838;59.938;30.642;2023-09-19T11:50:53;99875.19;;;20.48;70.15
48926;BME280;39838;59.938;30.642;2023-09-19T11:53:23;99869.06;;;20.47;69.86
48926;BME280;39838;59.938;30.642;2023-09-19T11:55:51;99867.03;;;20.52;69.86
48926;BME280;39838;59.938;30.642;2023-09-19T11:58:19;99864.31;;;20.54;69.51
48926;BME280;39838;59.938;30.642;2023-09-19T12:00:54;99862.53;;;20.54;69.50
48926;BME280;39838;59.938;30.642;2023-09-19T12:03:29;99861.97;;;20.65;69.18
48926;BME280;39838;59.938;30.642;2023-09-19T12:05:58;99861.66;;;20.71;69.08
48926;BME280;39838;59.938;30.642;2023-09-19T12:08:28;99849.69;;;20.81;69.09
48926;BME280;39838;59.938;30.642;2023-09-19T12:10:56;99850.47;;;20.83;68.48
48926;BME280;39838;59.938;30.642;2023-09-19T12:13:24;99853.47;;;20.93;68.63
48926;BME280;39838;59.938;30.642;2023-09-19T12:15:51;99853.13;;;20.99;68.22
48926;BME280;39838;59.938;30.642;2023-09-19T12:18:29;99832.44;;;20.91;68.27
48926;BME280;39838;59.938;30.642;2023-09-19T12:21:00;99850.03;;;21.08;68.39
48926;BME280;39838;59.938;30.642;2023-09-19T12:23:31;99850.03;;;21.08;68.06
48926;BME280;39838;59.938;30.642;2023-09-19T12:26:03;99842.88;;;21.10;67.56
48926;BME280;39838;59.938;30.642;2023-09-19T12:28:41;99842.44;;;21.02;67.65
48926;BME280;39838;59.938;30.642;2023-09-19T12:31:09;99841.56;;;21.02;67.55
48926;BME280;39838;59.938;30.642;2023-09-19T12:33:39;99832.09;;;20.97;67.52
48926;BME280;39838;59.938;30.642;2023-09-19T12:36:19;99821.88;;;20.91;67.62
48926;BME280;39838;59.938;30.642;2023-09-19T12:38:51;99833.47;;;20.89;67.93
48926;BME280;39838;59.938;30.642;2023-09-19T12:41:21;99808.41;;;20.80;68.05
48926;BME280;39838;59.938;30.642;2023-09-19T12:43:49;99835.16;;;20.90;68.22
48926;BME280;39838;59.938;30.642;2023-09-19T12:46:20;99820.25;;;20.89;68.22
48926;BME280;39838;59.938;30.642;2023-09-19T12:49:16;99815.22;;;20.84;67.88
48926;BME280;39838;59.938;30.642;2023-09-19T12:51:46;99815.91;;;20.88;67.68
48926;BME280;39838;59.938;30.642;2023-09-19T12:54:14;99816.59;;;20.91;67.74
48926;BME280;39838;59.938;30.642;2023-09-19T12:56:43;99810.13;;;20.97;67.81
48926;BME280;39838;59.938;30.642;2023-09-19T12:59:14;99810.66;;;21.04;67.75
48926;BME280;39838;59.938;30.642;2023-09-19T13:01:43;99798.81;;;21.11;67.14
48926;BME280;39838;59.938;30.642;2023-09-19T13:04:18;99794.13;;;21.00;67.56
48926;BME280;39838;59.938;30.642;2023-09-19T13:06:46;99793.53;;;21.11;67.09
48926;BME280;39838;59.938;30.642;2023-09-19T13:09:15;99789.72;;;21.16;67.17
48926;BME280;39838;59.938;30.642;2023-09-19T13:11:43;99785.78;;;21.23;66.72
48926;BME280;39838;59.938;30.642;2023-09-19T13:14:16;99770.19;;;21.19;66.42
48926;BME280;39838;59.938;30.642;2023-09-19T13:16:56;99769.63;;;21.14;66.62